sensor_id;sensor_type;location;lat;lon;timestamp;P1;durP1;ratioP1;P2;durP2;ratioP2
23658;SDS011;12006;42.666;23.326;2023-02-22T00:00:52;18.20;;;10.73;;
23658;SDS011;12006;42.666;23.326;2023-02-22T00:05:53;21.27;;;10.67;;
23658;SDS011;12006;42.666;23.326;2023-02-22T00:08:23;21.37;;;10.50;;
23658;SDS011;12006;42.666;23.326;2023-02-22T00:10:50;23.53;;;11.87;;
23658;SDS011;12006;42.666;23.326;2023-02-22T00:13:15;21.57;;;11.80;;
23658;SDS011;12006;42.666;23.326;2023-02-22T00:15:42;23.83;;;12.10;;
23658;SDS011;12006;42.666;23.326;2023-02-22T00:18:08;25.83;;;12.23;;
23658;SDS011;12006;42.666;23.326;2023-02-22T00:20:37;20.43;;;11.87;;
23658;SDS011;12006;42.666;23.326;2023-02-22T00:23:04;22.23;;;11.33;;
23658;SDS011;12006;42.666;23.326;2023-02-22T00:25:37;22.00;;;10.97;;
23658;SDS011;12006;42.666;23.326;2023-02-22T00:28:02;26.30;;;12.57;;
23658;SDS011;12006;42.666;23.326;2023-02-22T00:30:29;23.23;;;11.13;;
23658;SDS011;12006;42.666;23.326;2023-02-22T00:32:57;19.27;;;11.57;;
23658;SDS011;12006;42.666;23.326;2023-02-22T00:35:24;22.37;;;11.67;;
23658;SDS011;12006;42.666;23.326;2023-02-22T00:37:52;18.47;;;10.90;;
23658;SDS011;12006;42.666;23.326;2023-02-22T00:40:21;18.17;;;11.33;;
23658;SDS011;12006;42.666;23.326;2023-02-22T00:42:49;17.90;;;10.60;;
23658;SDS011;12006;42.666;23.326;2023-02-22T00:45:15;16.67;;;9.80;;
23658;SDS011;12006;42.666;23.326;2023-02-22T00:47:43;16.30;;;9.70;;
23658;SDS011;12006;42.666;23.326;2023-02-22T00:50:08;15.97;;;9.50;;
23658;SDS011;12006;42.666;23.326;2023-02-22T00:52:35;16.77;;;10.50;;
23658;SDS011;12006;42.666;23.326;2023-02-22T00:55:02;20.30;;;11.30;;
23658;SDS011;12006;42.666;23.326;2023-02-22T00:57:34;16.33;;;9.43;;
23658;SDS011;12006;42.666;23.326;2023-02-22T01:00:01;16.93;;;10.23;;
23658;SDS011;12006;42.666;23.326;2023-02-22T01:02:39;14.50;;;10.30;;
23658;SDS011;12006;42.666;23.326;2023-02-22T01:05:06;17.33;;;10.50;;
23658;SDS011;12006;42.666;23.326;2023-02-22T01:07:33;15.87;;;10.30;;
23658;SDS011;12006;42.666;23.326;2023-02-22T01:09:59;17.73;;;10.60;;
23658;SDS011;12006;42.666;23.326;2023-02-22T01:12:26;18.93;;;10.93;;
23658;SDS011;12006;42.666;23.326;2023-02-22T01:14:52;13.97;;;9.57;;
23658;SDS011;12006;42.666;23.326;2023-02-22T01:17:21;13.83;;;9.07;;
23658;SDS011;12006;42.666;23.326;2023-02-22T01:19:47;16.80;;;9.27;;
23658;SDS011;12006;42.666;23.326;2023-02-22T01:22:12;11.70;;;8.47;;
23658;SDS011;12006;42.666;23.326;2023-02-22T01:24:38;15.10;;;9.27;;
23658;SDS011;12006;42.666;23.326;2023-02-22T01:27:03;12.70;;;8.57;;
23658;SDS011;12006;42.666;23.326;2023-02-22T01:29:29;13.70;;;8.50;;
23658;SDS011;12006;42.666;23.326;2023-02-22T01:31:54;18.10;;;8.67;;
23658;SDS011;12006;42.666;23.326;2023-02-22T01:34:21;15.97;;;9.03;;
23658;SDS011;12006;42.666;23.326;2023-02-22T01:36:47;11.47;;;8.80;;
23658;SDS011;12006;42.666;23.326;2023-02-22T01:39:13;15.90;;;9.60;;
23658;SDS011;12006;42.666;23.326;2023-02-22T01:41:40;13.37;;;8.63;;
23658;SDS011;12006;42.666;23.326;2023-02-22T01:46:59;13.67;;;10.30;;
23658;SDS011;12006;42.666;23.326;2023-02-22T01:49:28;15.43;;;9.87;;
23658;SDS011;12006;42.666;23.326;2023-02-22T01:51:58;19.70;;;9.67;;
23658;SDS011;12006;42.666;23.326;2023-02-22T01:54:29;15.80;;;9.17;;
23658;SDS011;12006;42.666;23.326;2023-02-22T01:57:15;15.07;;;8.83;;
23658;SDS011;12006;42.666;23.326;2023-02-22T01:59:47;18.03;;;10.30;;
23658;SDS011;12006;42.666;23.326;2023-02-22T02:02:15;19.00;;;9.10;;
23658;SDS011;12006;42.666;23.326;2023-02-22T02:04:42;19.90;;;9.30;;
23658;SDS011;12006;42.666;23.326;2023-02-22T02:07:10;13.70;;;8.90;;
23658;SDS011;12006;42.666;23.326;2023-02-22T02:09:58;12.50;;;8.87;;
23658;SDS011;12006;42.666;23.326;2023-02-22T02:12:26;12.03;;;8.57;;
23658;SDS011;12006;42.666;23.326;2023-02-22T02:15:15;14.00;;;8.23;;
23658;SDS011;12006;42.666;23.326;2023-02-22T02:17:42;17.37;;;9.23;;
23658;SDS011;12006;42.666;23.326;2023-02-22T02:20:13;14.10;;;8.60;;
23658;SDS011;12006;42.666;23.326;2023-02-22T02:23:48;16.30;;;9.27;;
23658;SDS011;12006;42.666;23.326;2023-02-22T02:31:20;12.80;;;8.57;;
23658;SDS011;12006;42.666;23.326;2023-02-22T02:39:51;13.00;;;7.87;;
23658;SDS011;12006;42.666;23.326;2023-02-22T02:42:26;15.80;;;8.47;;
23658;SDS011;12006;42.666;23.326;2023-02-22T02:45:15;14.10;;;8.53;;
23658;SDS011;12006;42.666;23.326;2023-02-22T02:47:46;13.07;;;7.87;;
23658;SDS011;12006;42.666;23.326;2023-02-22T02:50:22;13.43;;;8.20;;
23658;SDS011;12006;42.666;23.326;2023-02-22T02:52:52;12.57;;;8.17;;
23658;SDS011;12006;42.666;23.326;2023-02-22T02:55:19;15.47;;;8.20;;
23658;SDS011;12006;42.666;23.326;2023-02-22T02:57:45;12.97;;;8.20;;
23658;SDS011;12006;42.666;23.326;2023-02-22T03:00:11;12.00;;;7.77;;
23658;SDS011;12006;42.666;23.326;2023-02-22T03:11:24;13.40;;;7.20;;
23658;SDS011;12006;42.666;23.326;2023-02-22T03:27:20;14.23;;;8.30;;
23658;SDS011;12006;42.666;23.326;2023-02-22T03:29:52;13.37;;;6.97;;
23658;SDS011;12006;42.666;23.326;2023-02-22T03:32:22;16.17;;;8.73;;
23658;SDS011;12006;42.666;23.326;2023-02-22T03:34:53;15.90;;;8.67;;
23658;SDS011;12006;42.666;23.326;2023-02-22T03:37:24;14.30;;;7.50;;
23658;SDS011;12006;42.666;23.326;2023-02-22T03:39:55;16.27;;;10.37;;
23658;SDS011;12006;42.666;23.326;2023-02-22T03:42:28;13.97;;;8.37;;
23658;SDS011;12006;42.666;23.326;2023-02-22T03:44:59;13.90;;;8.17;;
23658;SDS011;12006;42.666;23.326;2023-02-22T03:47:34;12.77;;;8.03;;
23658;SDS011;12006;42.666;23.326;2023-02-22T03:50:06;17.07;;;8.67;;
23658;SDS011;12006;42.666;23.326;2023-02-22T03:52:39;16.43;;;9.03;;
23658;SDS011;12006;42.666;23.326;2023-02-22T03:55:07;19.23;;;9.20;;
23658;SDS011;12006;42.666;23.326;2023-02-22T03:57:37;16.73;;;8.43;;
23658;SDS011;12006;42.666;23.326;2023-02-22T04:00:06;15.70;;;8.17;;
23658;SDS011;12006;42.666;23.326;2023-02-22T04:02:34;13.67;;;7.10;;
23658;SDS011;12006;42.666;23.326;2023-02-22T04:04:59;13.70;;;7.97;;
23658;SDS011;12006;42.666;23.326;2023-02-22T04:07:25;17.33;;;8.37;;
23658;SDS011;12006;42.666;23.326;2023-02-22T04:09:50;18.80;;;8.80;;
23658;SDS011;12006;42.666;23.326;2023-02-22T04:12:16;18.00;;;9.00;;
23658;SDS011;12006;42.666;23.326;2023-02-22T04:14:41;19.43;;;8.87;;
23658;SDS011;12006;42.666;23.326;2023-02-22T04:17:07;17.00;;;8.23;;
23658;SDS011;12006;42.666;23.326;2023-02-22T04:19:32;22.10;;;9.37;;
23658;SDS011;12006;42.666;23.326;2023-02-22T04:21:57;13.73;;;7.67;;
23658;SDS011;12006;42.666;23.326;2023-02-22T04:24:23;18.23;;;8.17;;
23658;SDS011;12006;42.666;23.326;2023-02-22T04:26:48;21.20;;;8.10;;
23658;SDS011;12006;42.666;23.326;2023-02-22T04:29:14;14.90;;;8.77;;
23658;SDS011;12006;42.666;23.326;2023-02-22T04:31:39;17.27;;;9.50;;
23658;SDS011;12006;42.666;23.326;2023-02-22T04:34:05;19.53;;;8.37;;
23658;SDS011;12006;42.666;23.326;2023-02-22T04:36:30;18.60;;;8.57;;
23658;SDS011;12006;42.666;23.326;2023-02-22T04:38:56;14.33;;;8.10;;
23658;SDS011;12006;42.666;23.326;2023-02-22T04:41:23;13.00;;;8.47;;
23658;SDS011;12006;42.666;23.326;2023-02-22T04:43:48;14.87;;;8.00;;
23658;SDS011;12006;42.666;23.326;2023-02-22T04:46:14;19.73;;;8.40;;
23658;SDS011;12006;42.666;23.326;2023-02-22T04:48:39;13.10;;;8.10;;
23658;SDS011;12006;42.666;23.326;2023-02-22T04:51:05;18.90;;;10.43;;
23658;SDS011;12006;42.666;23.326;2023-02-22T04:53:32;29.17;;;9.97;;
23658;SDS011;12006;42.666;23.326;2023-02-22T04:55:58;26.97;;;10.37;;
23658;SDS011;12006;42.666;23.326;2023-02-22T04:58:23;26.03;;;9.43;;
23658;SDS011;12006;42.666;23.326;2023-02-22T05:00:48;18.03;;;9.27;;
23658;SDS011;12006;42.666;23.326;2023-02-22T05:03:14;20.57;;;9.03;;
23658;SDS011;12006;42.666;23.326;2023-02-22T05:05:39;18.10;;;8.93;;
23658;SDS011;12006;42.666;23.326;2023-02-22T05:08:05;21.13;;;9.53;;
23658;SDS011;12006;42.666;23.326;2023-02-22T05:10:30;30.97;;;11.30;;
23658;SDS011;12006;42.666;23.326;2023-02-22T05:12:55;16.40;;;9.37;;
23658;SDS011;12006;42.666;23.326;2023-02-22T05:15:21;23.83;;;9.80;;
23658;SDS011;12006;42.666;23.326;2023-02-22T05:17:49;22.93;;;9.63;;
23658;SDS011;12006;42.666;23.326;2023-02-22T05:20:26;23.10;;;10.80;;
23658;SDS011;12006;42.666;23.326;2023-02-22T05:22:55;19.30;;;9.23;;
23658;SDS011;12006;42.666;23.326;2023-02-22T05:25:22;24.17;;;9.60;;
23658;SDS011;12006;42.666;23.326;2023-02-22T05:27:52;29.67;;;10.13;;
23658;SDS011;12006;42.666;23.326;2023-02-22T05:30:20;24.70;;;10.30;;
23658;SDS011;12006;42.666;23.326;2023-02-22T05:32:50;35.67;;;14.83;;
23658;SDS011;12006;42.666;23.326;2023-02-22T05:35:16;21.47;;;11.40;;
23658;SDS011;12006;42.666;23.326;2023-02-22T05:37:43;29.17;;;13.73;;
23658;SDS011;12006;42.666;23.326;2023-02-22T05:40:08;32.63;;;13.57;;
23658;SDS011;12006;42.666;23.326;2023-02-22T05:42:34;32.27;;;12.47;;
23658;SDS011;12006;42.666;23.326;2023-02-22T05:44:59;28.80;;;12.53;;
23658;SDS011;12006;42.666;23.326;2023-02-22T05:47:25;31.57;;;11.73;;
23658;SDS011;12006;42.666;23.326;2023-02-22T05:49:51;28.50;;;13.33;;
23658;SDS011;12006;42.666;23.326;2023-02-22T05:52:16;36.93;;;16.80;;
23658;SDS011;12006;42.666;23.326;2023-02-22T05:54:42;29.50;;;11.90;;
23658;SDS011;12006;42.666;23.326;2023-02-22T05:57:07;37.50;;;11.67;;
23658;SDS011;12006;42.666;23.326;2023-02-22T05:59:33;40.17;;;13.63;;
23658;SDS011;12006;42.666;23.326;2023-02-22T06:01:58;28.90;;;14.30;;
23658;SDS011;12006;42.666;23.326;2023-02-22T06:04:24;29.53;;;14.57;;
23658;SDS011;12006;42.666;23.326;2023-02-22T06:06:50;33.70;;;11.57;;
23658;SDS011;12006;42.666;23.326;2023-02-22T06:09:15;23.67;;;11.63;;
23658;SDS011;12006;42.666;23.326;2023-02-22T06:11:40;26.87;;;11.13;;
23658;SDS011;12006;42.666;23.326;2023-02-22T06:14:06;27.90;;;11.63;;
23658;SDS011;12006;42.666;23.326;2023-02-22T06:16:32;32.30;;;14.07;;
23658;SDS011;12006;42.666;23.326;2023-02-22T06:18:57;28.80;;;11.47;;
23658;SDS011;12006;42.666;23.326;2023-02-22T06:21:24;30.53;;;12.37;;
23658;SDS011;12006;42.666;23.326;2023-02-22T06:23:50;33.37;;;15.83;;
23658;SDS011;12006;42.666;23.326;2023-02-22T06:26:16;23.97;;;12.73;;
23658;SDS011;12006;42.666;23.326;2023-02-22T06:28:41;25.20;;;12.90;;
23658;SDS011;12006;42.666;23.326;2023-02-22T06:31:07;20.93;;;11.43;;
23658;SDS011;12006;42.666;23.326;2023-02-22T06:33:32;27.20;;;12.93;;
23658;SDS011;12006;42.666;23.326;2023-02-22T06:35:58;26.73;;;14.63;;
23658;SDS011;12006;42.666;23.326;2023-02-22T06:38:23;35.07;;;14.90;;
23658;SDS011;12006;42.666;23.326;2023-02-22T06:40:50;39.37;;;13.63;;
23658;SDS011;12006;42.666;23.326;2023-02-22T06:43:16;27.97;;;13.33;;
23658;SDS011;12006;42.666;23.326;2023-02-22T06:45:41;27.67;;;12.60;;
23658;SDS011;12006;42.666;23.326;2023-02-22T06:48:07;30.47;;;11.73;;
23658;SDS011;12006;42.666;23.326;2023-02-22T06:50:33;22.17;;;12.63;;
23658;SDS011;12006;42.666;23.326;2023-02-22T06:52:58;21.17;;;12.53;;
23658;SDS011;12006;42.666;23.326;2023-02-22T06:55:25;29.07;;;13.17;;
23658;SDS011;12006;42.666;23.326;2023-02-22T06:57:52;9.53;;;6.67;;
23658;SDS011;12006;42.666;23.326;2023-02-22T07:00:19;11.87;;;7.53;;
23658;SDS011;12006;42.666;23.326;2023-02-22T07:02:46;12.20;;;7.63;;
23658;SDS011;12006;42.666;23.326;2023-02-22T07:05:13;12.47;;;8.27;;
23658;SDS011;12006;42.666;23.326;2023-02-22T07:07:40;15.13;;;9.30;;
23658;SDS011;12006;42.666;23.326;2023-02-22T07:10:06;13.37;;;9.37;;
23658;SDS011;12006;42.666;23.326;2023-02-22T07:12:33;18.40;;;10.80;;
23658;SDS011;12006;42.666;23.326;2023-02-22T07:14:59;13.97;;;9.47;;
23658;SDS011;12006;42.666;23.326;2023-02-22T07:17:24;16.00;;;10.53;;
23658;SDS011;12006;42.666;23.326;2023-02-22T07:19:49;18.13;;;11.63;;
23658;SDS011;12006;42.666;23.326;2023-02-22T07:22:15;18.93;;;12.17;;
23658;SDS011;12006;42.666;23.326;2023-02-22T07:24:41;16.60;;;11.50;;
23658;SDS011;12006;42.666;23.326;2023-02-22T07:27:07;16.27;;;10.17;;
23658;SDS011;12006;42.666;23.326;2023-02-22T07:29:32;19.40;;;10.97;;
23658;SDS011;12006;42.666;23.326;2023-02-22T07:32:00;17.27;;;11.73;;
23658;SDS011;12006;42.666;23.326;2023-02-22T07:34:26;19.63;;;10.63;;
23658;SDS011;12006;42.666;23.326;2023-02-22T07:36:51;20.13;;;12.43;;
23658;SDS011;12006;42.666;23.326;2023-02-22T07:39:16;18.23;;;11.27;;
23658;SDS011;12006;42.666;23.326;2023-02-22T07:41:42;16.87;;;11.53;;
23658;SDS011;12006;42.666;23.326;2023-02-22T07:44:07;19.60;;;12.47;;
23658;SDS011;12006;42.666;23.326;2023-02-22T07:46:32;19.33;;;12.63;;
23658;SDS011;12006;42.666;23.326;2023-02-22T07:48:58;19.97;;;10.43;;
23658;SDS011;12006;42.666;23.326;2023-02-22T07:51:23;16.33;;;11.00;;
23658;SDS011;12006;42.666;23.326;2023-02-22T07:53:49;21.57;;;11.73;;
23658;SDS011;12006;42.666;23.326;2023-02-22T07:56:15;19.13;;;10.90;;
23658;SDS011;12006;42.666;23.326;2023-02-22T07:58:42;17.73;;;11.20;;
23658;SDS011;12006;42.666;23.326;2023-02-22T08:01:07;15.97;;;10.40;;
23658;SDS011;12006;42.666;23.326;2023-02-22T08:03:33;16.13;;;10.47;;
23658;SDS011;12006;42.666;23.326;2023-02-22T08:06:00;15.07;;;9.90;;
23658;SDS011;12006;42.666;23.326;2023-02-22T08:08:27;13.40;;;10.30;;
23658;SDS011;12006;42.666;23.326;2023-02-22T08:10:52;18.37;;;11.13;;
23658;SDS011;12006;42.666;23.326;2023-02-22T08:13:19;18.33;;;9.80;;
23658;SDS011;12006;42.666;23.326;2023-02-22T08:15:46;14.30;;;11.00;;
23658;SDS011;12006;42.666;23.326;2023-02-22T08:18:14;15.13;;;9.57;;
23658;SDS011;12006;42.666;23.326;2023-02-22T08:20:42;13.17;;;9.60;;
23658;SDS011;12006;42.666;23.326;2023-02-22T08:23:09;14.03;;;8.93;;
23658;SDS011;12006;42.666;23.326;2023-02-22T08:25:36;15.43;;;9.57;;
23658;SDS011;12006;42.666;23.326;2023-02-22T08:28:03;18.13;;;10.40;;
23658;SDS011;12006;42.666;23.326;2023-02-22T08:30:32;16.23;;;10.77;;
23658;SDS011;12006;42.666;23.326;2023-02-22T08:32:59;18.23;;;10.63;;
23658;SDS011;12006;42.666;23.326;2023-02-22T08:35:26;12.73;;;9.93;;
23658;SDS011;12006;42.666;23.326;2023-02-22T08:37:54;11.97;;;9.40;;
23658;SDS011;12006;42.666;23.326;2023-02-22T08:40:23;16.40;;;11.30;;
23658;SDS011;12006;42.666;23.326;2023-02-22T08:42:51;12.97;;;10.13;;
23658;SDS011;12006;42.666;23.326;2023-02-22T08:45:17;17.17;;;12.57;;
23658;SDS011;12006;42.666;23.326;2023-02-22T08:47:43;12.90;;;9.83;;
23658;SDS011;12006;42.666;23.326;2023-02-22T08:50:09;16.17;;;8.97;;
23658;SDS011;12006;42.666;23.326;2023-02-22T08:52:41;13.33;;;8.40;;
23658;SDS011;12006;42.666;23.326;2023-02-22T08:55:07;10.63;;;8.20;;
23658;SDS011;12006;42.666;23.326;2023-02-22T08:57:32;9.70;;;7.93;;
23658;SDS011;12006;42.666;23.326;2023-02-22T08:59:57;18.70;;;7.90;;
23658;SDS011;12006;42.666;23.326;2023-02-22T09:02:23;12.80;;;7.63;;
23658;SDS011;12006;42.666;23.326;2023-02-22T09:04:49;10.60;;;7.83;;
23658;SDS011;12006;42.666;23.326;2023-02-22T09:07:14;10.83;;;7.27;;
23658;SDS011;12006;42.666;23.326;2023-02-22T09:09:41;10.23;;;7.23;;
23658;SDS011;12006;42.666;23.326;2023-02-22T09:12:07;9.93;;;6.73;;
23658;SDS011;12006;42.666;23.326;2023-02-22T09:14:32;7.90;;;6.40;;
23658;SDS011;12006;42.666;23.326;2023-02-22T09:16:58;12.83;;;6.67;;
23658;SDS011;12006;42.666;23.326;2023-02-22T09:19:23;9.13;;;6.27;;
23658;SDS011;12006;42.666;23.326;2023-02-22T09:21:53;9.27;;;6.37;;
23658;SDS011;12006;42.666;23.326;2023-02-22T09:24:19;7.27;;;6.03;;
23658;SDS011;12006;42.666;23.326;2023-02-22T09:26:45;7.70;;;6.23;;
23658;SDS011;12006;42.666;23.326;2023-02-22T09:29:12;10.23;;;6.40;;
23658;SDS011;12006;42.666;23.326;2023-02-22T09:31:38;10.73;;;6.13;;
23658;SDS011;12006;42.666;23.326;2023-02-22T09:34:05;7.83;;;5.40;;
23658;SDS011;12006;42.666;23.326;2023-02-22T09:36:38;8.60;;;6.20;;
23658;SDS011;12006;42.666;23.326;2023-02-22T09:39:05;8.67;;;5.93;;
23658;SDS011;12006;42.666;23.326;2023-02-22T09:41:36;6.97;;;4.60;;
23658;SDS011;12006;42.666;23.326;2023-02-22T09:46:43;3.77;;;3.13;;
23658;SDS011;12006;42.666;23.326;2023-02-22T09:55:01;4.00;;;2.90;;
23658;SDS011;12006;42.666;23.326;2023-02-22T09:57:34;3.85;;;3.08;;
23658;SDS011;12006;42.666;23.326;2023-02-22T10:00:12;3.50;;;3.20;;
23658;SDS011;12006;42.666;23.326;2023-02-22T10:02:48;4.40;;;3.20;;
23658;SDS011;12006;42.666;23.326;2023-02-22T10:05:26;4.50;;;2.85;;
23658;SDS011;12006;42.666;23.326;2023-02-22T10:08:02;3.38;;;2.70;;
23658;SDS011;12006;42.666;23.326;2023-02-22T10:10:32;5.18;;;3.22;;
23658;SDS011;12006;42.666;23.326;2023-02-22T10:13:14;4.75;;;2.50;;
23658;SDS011;12006;42.666;23.326;2023-02-22T10:15:53;3.83;;;2.60;;
23658;SDS011;12006;42.666;23.326;2023-02-22T10:24:06;4.85;;;2.45;;
23658;SDS011;12006;42.666;23.326;2023-02-22T10:26:39;5.78;;;3.38;;
23658;SDS011;12006;42.666;23.326;2023-02-22T10:29:41;5.55;;;3.85;;
23658;SDS011;12006;42.666;23.326;2023-02-22T10:32:00;3.65;;;3.15;;
23658;SDS011;12006;42.666;23.326;2023-02-22T10:34:38;4.07;;;3.00;;
23658;SDS011;12006;42.666;23.326;2023-02-22T10:37:27;5.20;;;3.15;;
23658;SDS011;12006;42.666;23.326;2023-02-22T10:40:13;4.68;;;3.75;;
23658;SDS011;12006;42.666;23.326;2023-02-22T10:42:47;4.07;;;3.50;;
23658;SDS011;12006;42.666;23.326;2023-02-22T10:45:27;4.20;;;3.50;;
23658;SDS011;12006;42.666;23.326;2023-02-22T10:47:56;5.13;;;3.10;;
23658;SDS011;12006;42.666;23.326;2023-02-22T10:50:24;3.35;;;3.03;;
23658;SDS011;12006;42.666;23.326;2023-02-22T10:52:53;6.72;;;3.72;;
23658;SDS011;12006;42.666;23.326;2023-02-22T10:55:19;5.20;;;3.55;;
23658;SDS011;12006;42.666;23.326;2023-02-22T10:57:46;5.45;;;3.35;;
23658;SDS011;12006;42.666;23.326;2023-02-22T11:02:52;4.03;;;3.35;;
23658;SDS011;12006;42.666;23.326;2023-02-22T11:05:52;6.70;;;3.90;;
23658;SDS011;12006;42.666;23.326;2023-02-22T11:10:48;3.88;;;3.13;;
23658;SDS011;12006;42.666;23.326;2023-02-22T11:13:16;3.60;;;3.10;;
23658;SDS011;12006;42.666;23.326;2023-02-22T11:15:50;4.53;;;2.67;;
23658;SDS011;12006;42.666;23.326;2023-02-22T11:18:21;3.10;;;2.28;;
23658;SDS011;12006;42.666;23.326;2023-02-22T11:20:57;3.22;;;2.70;;
23658;SDS011;12006;42.666;23.326;2023-02-22T11:23:28;4.28;;;3.05;;
23658;SDS011;12006;42.666;23.326;2023-02-22T11:26:01;3.60;;;2.67;;
23658;SDS011;12006;42.666;23.326;2023-02-22T11:28:33;3.88;;;3.17;;
23658;SDS011;12006;42.666;23.326;2023-02-22T11:33:49;3.53;;;2.70;;
23658;SDS011;12006;42.666;23.326;2023-02-22T11:36:41;10.48;;;9.43;;
23658;SDS011;12006;42.666;23.326;2023-02-22T11:39:24;5.97;;;4.60;;
23658;SDS011;12006;42.666;23.326;2023-02-22T11:41:52;2.58;;;2.10;;
23658;SDS011;12006;42.666;23.326;2023-02-22T11:46:48;2.20;;;2.00;;
23658;SDS011;12006;42.666;23.326;2023-02-22T11:49:14;3.45;;;2.20;;
23658;SDS011;12006;42.666;23.326;2023-02-22T12:18:03;2.28;;;2.08;;
23658;SDS011;12006;42.666;23.326;2023-02-22T12:20:42;2.78;;;1.63;;
23658;SDS011;12006;42.666;23.326;2023-02-22T12:23:13;4.95;;;2.10;;
23658;SDS011;12006;42.666;23.326;2023-02-22T12:26:06;2.25;;;1.98;;
23658;SDS011;12006;42.666;23.326;2023-02-22T12:28:46;2.55;;;2.35;;
23658;SDS011;12006;42.666;23.326;2023-02-22T12:36:56;2.25;;;1.98;;
23658;SDS011;12006;42.666;23.326;2023-02-22T12:42:04;3.10;;;2.13;;
23658;SDS011;12006;42.666;23.326;2023-02-22T12:44:38;2.20;;;2.00;;
23658;SDS011;12006;42.666;23.326;2023-02-22T12:47:07;2.90;;;1.90;;
23658;SDS011;12006;42.666;23.326;2023-02-22T12:49:43;3.83;;;2.88;;
23658;SDS011;12006;42.666;23.326;2023-02-22T12:57:43;3.78;;;2.72;;
23658;SDS011;12006;42.666;23.326;2023-02-22T13:05:54;3.45;;;2.38;;
23658;SDS011;12006;42.666;23.326;2023-02-22T13:08:57;4.03;;;2.83;;
23658;SDS011;12006;42.666;23.326;2023-02-22T13:17:05;2.40;;;2.20;;
23658;SDS011;12006;42.666;23.326;2023-02-22T13:22:31;4.53;;;2.45;;
23658;SDS011;12006;42.666;23.326;2023-02-22T13:27:57;2.80;;;2.47;;
23658;SDS011;12006;42.666;23.326;2023-02-22T13:33:28;2.85;;;2.60;;
23658;SDS011;12006;42.666;23.326;2023-02-22T13:36:23;2.67;;;2.25;;
23658;SDS011;12006;42.666;23.326;2023-02-22T13:39:07;4.22;;;3.22;;
23658;SDS011;12006;42.666;23.326;2023-02-22T13:53:02;4.18;;;3.08;;
23658;SDS011;12006;42.666;23.326;2023-02-22T13:55:33;3.67;;;3.00;;
23658;SDS011;12006;42.666;23.326;2023-02-22T13:58:02;3.30;;;3.00;;
23658;SDS011;12006;42.666;23.326;2023-02-22T14:00:51;3.85;;;2.53;;
23658;SDS011;12006;42.666;23.326;2023-02-22T14:06:04;3.38;;;3.08;;
23658;SDS011;12006;42.666;23.326;2023-02-22T14:16:25;4.97;;;2.85;;
23658;SDS011;12006;42.666;23.326;2023-02-22T14:19:01;4.55;;;3.20;;
23658;SDS011;12006;42.666;23.326;2023-02-22T14:24:22;4.07;;;3.20;;
23658;SDS011;12006;42.666;23.326;2023-02-22T14:26:54;6.32;;;3.55;;
23658;SDS011;12006;42.666;23.326;2023-02-22T14:29:23;4.50;;;3.03;;
23658;SDS011;12006;42.666;23.326;2023-02-22T14:34:15;5.28;;;3.60;;
23658;SDS011;12006;42.666;23.326;2023-02-22T14:39:13;3.10;;;2.80;;
23658;SDS011;12006;42.666;23.326;2023-02-22T14:41:41;4.03;;;2.97;;
23658;SDS011;12006;42.666;23.326;2023-02-22T14:44:12;4.57;;;3.30;;
23658;SDS011;12006;42.666;23.326;2023-02-22T14:46:44;3.50;;;2.97;;
23658;SDS011;12006;42.666;23.326;2023-02-22T14:49:14;5.78;;;3.45;;
23658;SDS011;12006;42.666;23.326;2023-02-22T14:51:43;4.70;;;3.60;;
23658;SDS011;12006;42.666;23.326;2023-02-22T14:54:27;3.80;;;3.40;;
23658;SDS011;12006;42.666;23.326;2023-02-22T14:59:56;5.28;;;4.30;;
23658;SDS011;12006;42.666;23.326;2023-02-22T15:02:38;7.07;;;3.38;;
23658;SDS011;12006;42.666;23.326;2023-02-22T15:05:05;5.38;;;3.42;;
23658;SDS011;12006;42.666;23.326;2023-02-22T15:07:31;4.68;;;3.60;;
23658;SDS011;12006;42.666;23.326;2023-02-22T15:12:41;4.68;;;3.45;;
23658;SDS011;12006;42.666;23.326;2023-02-22T15:15:18;4.07;;;3.42;;
23658;SDS011;12006;42.666;23.326;2023-02-22T15:17:47;5.10;;;3.42;;
23658;SDS011;12006;42.666;23.326;2023-02-22T15:20:18;4.38;;;3.60;;
23658;SDS011;12006;42.666;23.326;2023-02-22T15:22:44;5.40;;;3.60;;
23658;SDS011;12006;42.666;23.326;2023-02-22T15:25:12;5.07;;;3.92;;
23658;SDS011;12006;42.666;23.326;2023-02-22T15:27:38;7.15;;;4.35;;
23658;SDS011;12006;42.666;23.326;2023-02-22T15:30:22;5.95;;;4.30;;
23658;SDS011;12006;42.666;23.326;2023-02-22T15:32:50;3.92;;;3.60;;
23658;SDS011;12006;42.666;23.326;2023-02-22T15:37:59;5.55;;;4.18;;
23658;SDS011;12006;42.666;23.326;2023-02-22T15:40:46;4.32;;;3.97;;
23658;SDS011;12006;42.666;23.326;2023-02-22T15:43:22;4.60;;;4.15;;
23658;SDS011;12006;42.666;23.326;2023-02-22T15:45:49;5.60;;;4.80;;
23658;SDS011;12006;42.666;23.326;2023-02-22T15:48:15;6.53;;;4.63;;
23658;SDS011;12006;42.666;23.326;2023-02-22T15:53:29;4.60;;;4.20;;
23658;SDS011;12006;42.666;23.326;2023-02-22T15:56:04;5.53;;;5.03;;
23658;SDS011;12006;42.666;23.326;2023-02-22T15:58:34;7.25;;;4.88;;
23658;SDS011;12006;42.666;23.326;2023-02-22T16:01:05;5.93;;;5.00;;
23658;SDS011;12006;42.666;23.326;2023-02-22T16:03:42;6.05;;;4.57;;
23658;SDS011;12006;42.666;23.326;2023-02-22T16:07:01;6.57;;;5.40;;
23658;SDS011;12006;42.666;23.326;2023-02-22T16:09:00;6.20;;;5.60;;
23658;SDS011;12006;42.666;23.326;2023-02-22T16:11:36;6.10;;;5.43;;
23658;SDS011;12006;42.666;23.326;2023-02-22T16:14:29;6.97;;;5.38;;
23658;SDS011;12006;42.666;23.326;2023-02-22T16:17:11;6.68;;;5.57;;
23658;SDS011;12006;42.666;23.326;2023-02-22T16:19:52;8.47;;;6.00;;
23658;SDS011;12006;42.666;23.326;2023-02-22T16:22:29;6.77;;;6.07;;
23658;SDS011;12006;42.666;23.326;2023-02-22T16:27:52;9.17;;;6.37;;
23658;SDS011;12006;42.666;23.326;2023-02-22T16:30:25;6.93;;;5.63;;
23658;SDS011;12006;42.666;23.326;2023-02-22T16:33:06;7.70;;;5.77;;
23658;SDS011;12006;42.666;23.326;2023-02-22T16:35:40;9.03;;;6.23;;
23658;SDS011;12006;42.666;23.326;2023-02-22T16:38:15;9.30;;;6.33;;
23658;SDS011;12006;42.666;23.326;2023-02-22T16:40:46;9.13;;;6.47;;
23658;SDS011;12006;42.666;23.326;2023-02-22T16:43:16;8.07;;;5.73;;
23658;SDS011;12006;42.666;23.326;2023-02-22T16:45:44;7.10;;;5.80;;
23658;SDS011;12006;42.666;23.326;2023-02-22T16:48:29;8.53;;;5.57;;
23658;SDS011;12006;42.666;23.326;2023-02-22T16:50:59;9.03;;;5.73;;
23658;SDS011;12006;42.666;23.326;2023-02-22T16:53:26;7.90;;;6.00;;
23658;SDS011;12006;42.666;23.326;2023-02-22T16:55:56;10.63;;;6.83;;
23658;SDS011;12006;42.666;23.326;2023-02-22T16:58:27;12.30;;;6.70;;
23658;SDS011;12006;42.666;23.326;2023-02-22T17:00:56;8.67;;;6.40;;
23658;SDS011;12006;42.666;23.326;2023-02-22T17:03:21;7.50;;;6.70;;
23658;SDS011;12006;42.666;23.326;2023-02-22T17:05:48;12.47;;;6.47;;
23658;SDS011;12006;42.666;23.326;2023-02-22T17:08:14;9.37;;;6.50;;
23658;SDS011;12006;42.666;23.326;2023-02-22T17:10:43;10.70;;;7.40;;
23658;SDS011;12006;42.666;23.326;2023-02-22T17:13:10;10.47;;;6.90;;
23658;SDS011;12006;42.666;23.326;2023-02-22T17:15:36;14.77;;;7.57;;
23658;SDS011;12006;42.666;23.326;2023-02-22T17:18:05;9.83;;;6.50;;
23658;SDS011;12006;42.666;23.326;2023-02-22T17:20:38;10.30;;;8.60;;
23658;SDS011;12006;42.666;23.326;2023-02-22T17:23:04;14.50;;;9.37;;
23658;SDS011;12006;42.666;23.326;2023-02-22T17:26:05;14.30;;;8.03;;